METAR Data
IDs: Format: Raw Decoded Include TAF

Data at: 1154 UTC 15 Jul 2020

KBCE 151053Z AUTO 23005KT 10SM CLR 07/M02 A3029 RMK AO2 SLP129 T00671017
KBCE 150953Z AUTO 21003KT 10SM CLR 07/M02 A3028 RMK AO2 SLP130 T00721022
KBCE 150853Z AUTO VRB03KT 10SM CLR 08/M02 A3028 RMK AO2 SLP124 T00831017 53005
KBCE 150753Z AUTO 26005KT 10SM CLR 12/M01 A3028 RMK AO2 SLP119 T01171011
KBCE 150653Z AUTO 31004KT 10SM CLR 12/M01 A3027 RMK AO2 SLP113 T01221011 403060117
KBCE 150553Z AUTO 04005KT 10SM CLR 13/M02 A3026 RMK AO2 SLP112 T01331017 10294 20133 51008
KBCE 150453Z AUTO 27004KT 10SM CLR 17/M02 A3026 RMK AO2 SLP105 T01721017
KBCE 150353Z AUTO 26006KT 10SM CLR 18/M01 A3025 RMK AO2 SLP101 T01831011
KBCE 150253Z AUTO 25010KT 10SM CLR 23/M01 A3023 RMK AO2 SLP087 T02331011 53003
KBCE 150153Z AUTO 26013KT 10SM CLR 26/M01 A3023 RMK AO2 SLP089 T02611006
KBCE 150053Z AUTO 24013KT 10SM CLR 28/01 A3022 RMK AO2 SLP096 T02780006
KBCE 142353Z AUTO 23013G20KT 10SM CLR 29/01 A3022 RMK AO2 WSHFT 2243 SLP097 T02890006 10306 20272 56010
KBCE 142303Z AUTO 26011G21KT 10SM FEW110 29/01 A3023 RMK AO2 WSHFT 2243 T02940011
KBCE 142253Z AUTO 28012G18KT 10SM FEW110 31/02 A3023 RMK AO2 SLP089 T03060017
KBCE 142153Z AUTO 22010G21KT 180V250 10SM FEW110 29/01 A3025 RMK AO2 WSHFT 2121 SLP095 T02940011
KBCE 142141Z AUTO 27006G17KT 10SM FEW110 29/01 A3025 RMK AO2 WSHFT 2121 T02890006
KBCE 142053Z AUTO 22015G23KT 10SM SCT110 30/01 A3026 RMK AO2 SLP090 T03000006 58007
KBCE 141953Z AUTO 28010G18KT 10SM CLR 28/00 A3027 RMK AO2 SLP095 T02830000
KBCE 141853Z AUTO 19011G18KT 10SM CLR 28/01 A3029 RMK AO2 SLP098 T02830006
KBCE 141753Z AUTO 27012G18KT 10SM CLR 28/01 A3028 RMK AO2 SLP097 T02780006 10278 20117 56003
KBCE 141653Z AUTO 26009G16KT 10SM CLR 26/00 A3028 RMK AO2 SLP100 T02610000
KBCE 141553Z AUTO 26010G15KT 10SM CLR 25/01 A3029 RMK AO2 SLP105 T02500011
KBCE 141453Z AUTO 26007KT 10SM CLR 23/02 A3029 RMK AO2 SLP107 T02280017 51008
KBCE 141353Z AUTO 02003KT 10SM FEW120 19/03 A3029 RMK AO2 SLP107 T01890033
KBCE 141253Z AUTO VRB04KT 10SM CLR 13/02 A3028 RMK AO2 SLP114 T01280017
KBCE 141153Z AUTO 19004KT 10SM FEW120 12/01 A3026 RMK AO2 SLP109 T01220011 10222 20117 53007
KBCE 141053Z AUTO 00000KT 10SM CLR 14/01 A3025 RMK AO2 SLP096 T01440011
KBCE 140953Z AUTO 00000KT 10SM CLR 16/01 A3024 RMK AO2 SLP092 T01560011
KBCE 140853Z AUTO 15006KT 10SM CLR 18/01 A3024 RMK AO2 SLP081 T01830011 53005
KBCE 140753Z AUTO 24007KT 10SM CLR 21/01 A3023 RMK AO2 SLP075 T02060011
KBCE 140653Z AUTO 25010KT 10SM BKN110 21/M01 A3023 RMK AO2 SLP074 T02111006 403170078
KBCE 140553Z AUTO 24012KT 10SM CLR 22/M01 A3022 RMK AO2 SLP072 T02221006 10300 20211 52001
KBCE 140453Z AUTO 24011KT 10SM CLR 22/M01 A3022 RMK AO2 SLP072 T02221011
KBCE 140353Z AUTO 25008KT 10SM CLR 23/M01 A3021 RMK AO2 SLP070 T02281006
KBCE 140253Z AUTO 26008KT 10SM CLR 24/01 A3022 RMK AO2 SLP071 T02440011 53007
KBCE 140153Z AUTO 25016G23KT 10SM CLR 27/02 A3020 RMK AO2 SLP074 T02720017
KBCE 140053Z AUTO 25019G27KT 10SM CLR 29/03 A3019 RMK AO2 PK WND 26031/0011 SLP091 T02890028